createdAt,value
2022-10-02T00:01:18.133Z,12.7
2022-10-02T00:03:19.325Z,12.7
2022-10-02T00:05:20.587Z,12.7
2022-10-02T00:07:21.835Z,12.6
2022-10-02T00:09:23.092Z,12.6
2022-10-02T00:11:24.340Z,12.6
2022-10-02T00:13:25.607Z,12.6
2022-10-02T00:20:34.882Z,12.5
2022-10-02T00:22:36.157Z,12.4
2022-10-02T00:24:37.411Z,12.4
2022-10-02T00:28:43.156Z,12.4
2022-10-02T00:30:44.433Z,12.3
2022-10-02T00:32:45.668Z,12.4
2022-10-02T00:34:46.934Z,12.4
2022-10-02T00:36:48.175Z,12.4
2022-10-02T00:38:49.438Z,12.5
2022-10-02T00:42:55.194Z,12.5
2022-10-02T00:44:56.437Z,12.6
2022-10-02T00:46:57.689Z,12.6
2022-10-02T00:48:58.946Z,12.7
2022-10-02T00:59:08.439Z,12.7
2022-10-02T01:01:09.764Z,12.7
2022-10-02T01:03:10.950Z,12.6
2022-10-02T01:05:12.207Z,12.6
2022-10-02T01:07:13.436Z,12.5
2022-10-02T01:13:20.457Z,12.4
2022-10-02T01:15:21.706Z,12.4
2022-10-02T01:19:51.289Z,12.3
2022-10-02T01:21:52.528Z,12.3
2022-10-02T01:30:00.809Z,12.2
2022-10-02T01:32:02.091Z,12.1
2022-10-02T01:40:10.345Z,12.1
2022-10-02T01:42:11.583Z,12
2022-10-02T01:44:12.810Z,12
2022-10-02T01:46:14.127Z,12
2022-10-02T01:48:15.309Z,12
2022-10-02T01:52:21.088Z,11.9
2022-10-02T01:54:22.329Z,11.9
2022-10-02T01:56:23.572Z,11.9
2022-10-02T01:58:24.838Z,11.8
2022-10-02T02:00:26.070Z,11.8
2022-10-02T02:02:27.456Z,11.8
2022-10-02T02:04:28.588Z,11.8
2022-10-02T02:06:33.312Z,11.8
2022-10-02T02:08:34.341Z,11.8
2022-10-02T02:10:35.574Z,11.8
2022-10-02T02:11:37.848Z,11.8
2022-10-02T02:13:39.104Z,11.8
2022-10-02T02:15:40.339Z,11.7
2022-10-02T02:17:41.577Z,11.7
2022-10-02T02:19:46.088Z,11.7
2022-10-02T02:21:47.337Z,11.7
2022-10-02T02:23:48.557Z,11.7
2022-10-02T02:25:49.801Z,11.7
2022-10-02T02:27:51.087Z,11.7
2022-10-02T02:29:52.301Z,11.7
2022-10-02T02:31:53.631Z,11.7
2022-10-02T02:33:58.062Z,11.7
2022-10-02T02:38:00.536Z,11.7
2022-10-02T02:40:01.800Z,11.7
2022-10-02T02:42:03.033Z,11.7
2022-10-02T02:44:04.284Z,11.7
2022-10-02T02:50:11.312Z,11.7
2022-10-02T02:52:12.539Z,11.7
2022-10-02T02:54:13.809Z,11.7
2022-10-02T02:56:15.045Z,11.6
2022-10-02T03:00:17.545Z,11.7
2022-10-02T03:02:22.173Z,11.6
2022-10-02T03:04:23.323Z,11.6
2022-10-02T03:06:24.559Z,11.7
2022-10-02T03:07:26.803Z,11.6
2022-10-02T03:09:28.073Z,11.6
2022-10-02T03:11:29.315Z,11.6
2022-10-02T03:13:30.607Z,11.7
2022-10-02T03:15:35.112Z,11.7
2022-10-02T03:17:36.340Z,11.7
2022-10-02T03:19:37.580Z,11.7
2022-10-02T03:21:38.835Z,11.7
2022-10-02T03:23:40.088Z,11.7
2022-10-02T03:25:41.356Z,11.7
2022-10-02T03:27:42.567Z,11.7
2022-10-02T03:29:47.099Z,11.8
2022-10-02T03:31:48.370Z,11.8
2022-10-02T03:33:49.587Z,11.7
2022-10-02T03:39:53.329Z,11.8
2022-10-02T03:41:54.576Z,11.8
2022-10-02T03:50:02.848Z,11.8
2022-10-02T03:52:04.076Z,11.8
2022-10-02T03:54:05.339Z,11.8
2022-10-02T03:56:06.595Z,11.8
2022-10-02T03:58:11.134Z,11.9
2022-10-02T04:00:12.411Z,11.8
2022-10-02T04:02:13.640Z,11.9
2022-10-02T04:03:15.970Z,11.9
2022-10-02T04:05:17.168Z,11.9
2022-10-02T04:09:21.171Z,11.9
2022-10-02T04:11:25.721Z,11.9
2022-10-02T04:13:26.930Z,11.9
2022-10-02T04:15:28.180Z,11.9
2022-10-02T04:19:30.689Z,12
2022-10-02T04:23:33.172Z,12
2022-10-02T04:25:37.699Z,12
2022-10-02T04:27:38.953Z,12
2022-10-02T04:29:40.186Z,12
2022-10-02T04:31:41.489Z,12
2022-10-02T04:33:42.688Z,12
2022-10-02T04:35:43.957Z,12
2022-10-02T04:37:45.195Z,12
2022-10-02T04:39:49.768Z,12
2022-10-02T04:41:50.958Z,12
2022-10-02T04:43:52.225Z,12
2022-10-02T04:45:53.608Z,12
2022-10-02T04:47:54.700Z,12
2022-10-02T04:49:55.959Z,12
2022-10-02T04:51:57.215Z,12
2022-10-02T04:54:01.740Z,12
2022-10-02T04:56:02.969Z,12
2022-10-02T04:58:04.221Z,11.9
2022-10-02T05:00:32.680Z,11.9
2022-10-02T05:02:33.812Z,11.9
2022-10-02T05:04:35.091Z,11.9
2022-10-02T05:06:39.578Z,11.9
2022-10-02T05:08:40.834Z,12
2022-10-02T05:10:42.089Z,12
2022-10-02T05:12:43.314Z,12
2022-10-02T05:14:44.563Z,11.9
2022-10-02T05:16:45.857Z,11.9
2022-10-02T05:18:47.062Z,12
2022-10-02T05:20:51.576Z,12
2022-10-02T05:24:54.046Z,11.9
2022-10-02T05:26:55.312Z,12
2022-10-02T05:28:56.546Z,11.9
2022-10-02T05:30:57.854Z,11.9
2022-10-02T05:32:59.037Z,11.9
2022-10-02T05:35:03.570Z,12
2022-10-02T05:37:04.821Z,12
2022-10-02T05:39:06.057Z,12
2022-10-02T05:41:07.319Z,12
2022-10-02T05:43:08.575Z,12
2022-10-02T05:45:09.808Z,12
2022-10-02T05:47:11.080Z,12.1
2022-10-02T05:49:15.568Z,12.1
2022-10-02T05:51:16.818Z,12.1
2022-10-02T05:54:20.318Z,12.2
2022-10-02T05:56:21.603Z,12.1
2022-10-02T05:58:22.841Z,12.1
2022-10-02T06:00:24.331Z,12.2
2022-10-02T06:02:28.672Z,12.2
2022-10-02T06:04:29.847Z,12.2
2022-10-02T06:06:31.103Z,12.3
2022-10-02T06:08:32.333Z,12.3
2022-10-02T06:10:33.614Z,12.3
2022-10-02T06:12:34.821Z,12.3
2022-10-02T06:14:36.083Z,12.3
2022-10-02T06:20:43.087Z,12.3
2022-10-02T06:22:44.353Z,12.4
2022-10-02T06:24:45.581Z,12.4
2022-10-02T06:26:46.826Z,12.4
2022-10-02T06:28:48.090Z,12.4
2022-10-02T06:30:52.599Z,12.4
2022-10-02T06:32:53.844Z,12.4
2022-10-02T06:34:55.115Z,12.4
2022-10-02T06:36:56.344Z,12.4
2022-10-02T06:38:57.597Z,12.4
2022-10-02T06:40:58.836Z,12.4
2022-10-02T06:45:04.605Z,12.4
2022-10-02T06:47:05.826Z,12.4
2022-10-02T06:50:09.358Z,12.4
2022-10-02T06:52:10.617Z,12.5
2022-10-02T06:54:11.880Z,12.5
2022-10-02T06:56:13.111Z,12.5
2022-10-02T06:58:17.630Z,12.6
2022-10-02T07:00:18.857Z,12.6
2022-10-02T07:02:20.175Z,12.6
2022-10-02T07:04:21.356Z,12.7
2022-10-02T07:06:22.603Z,12.7
2022-10-02T07:08:23.872Z,12.7
2022-10-02T07:12:29.639Z,12.8
2022-10-02T07:14:30.895Z,12.8
2022-10-02T07:16:32.322Z,12.9
2022-10-02T07:18:33.396Z,12.9
2022-10-02T07:20:34.640Z,12.9
2022-10-02T07:22:45.062Z,13
2022-10-02T07:24:37.141Z,13
2022-10-02T07:26:41.675Z,13.1
2022-10-02T07:28:42.961Z,13.1
2022-10-02T07:30:44.194Z,13.2
2022-10-02T07:34:46.702Z,13.3
2022-10-02T07:36:47.963Z,13.3
2022-10-02T07:38:49.223Z,13.3
2022-10-02T07:40:56.936Z,13.4
2022-10-02T07:42:54.985Z,13.4
2022-10-02T07:44:56.252Z,13.4
2022-10-02T07:45:58.533Z,13.5
2022-10-02T07:50:01.000Z,13.5
2022-10-02T07:52:02.288Z,13.5
2022-10-02T07:54:06.796Z,13.7
2022-10-02T07:56:08.029Z,13.7
2022-10-02T07:58:09.304Z,13.7
2022-10-02T08:00:10.562Z,13.8
2022-10-02T08:04:13.075Z,14.1
2022-10-02T08:06:14.338Z,14.3
2022-10-02T08:16:23.902Z,14.6
2022-10-02T08:26:35.575Z,15
2022-10-02T08:28:34.453Z,15
2022-10-02T08:30:35.608Z,15.1
2022-10-02T08:32:36.757Z,15.1
2022-10-02T08:34:37.883Z,15.2
2022-10-02T08:38:43.378Z,15.4
2022-10-02T08:40:44.508Z,15.6
2022-10-02T08:45:13.856Z,15.6
2022-10-02T08:47:14.980Z,15.7
2022-10-02T08:49:19.299Z,15.8
2022-10-02T08:51:20.443Z,15.9
2022-10-02T08:53:21.587Z,16.4
2022-10-02T08:57:23.861Z,16.9
2022-10-02T08:59:24.997Z,17.3
2022-10-02T09:01:26.354Z,17.4
2022-10-02T09:03:30.426Z,17.3
2022-10-02T09:05:31.566Z,17.2
2022-10-02T09:07:32.685Z,16.7
2022-10-02T09:09:33.819Z,16.4
2022-10-02T09:11:34.930Z,17.4
2022-10-02T09:13:36.072Z,17.2
2022-10-02T09:15:37.208Z,16.8
2022-10-02T09:17:41.558Z,17.4
2022-10-02T09:19:42.652Z,18
2022-10-02T09:21:43.802Z,18.1
2022-10-02T09:23:44.921Z,18.1
2022-10-02T09:25:46.150Z,18.3
2022-10-02T09:27:47.260Z,18.3
2022-10-02T09:29:48.308Z,18.9
2022-10-02T09:31:52.621Z,19.3
2022-10-02T09:33:53.678Z,19.1
2022-10-02T09:35:54.779Z,18.9
2022-10-02T09:40:59.166Z,18.2
2022-10-02T09:45:04.579Z,19.3
2022-10-02T09:47:05.685Z,18.9
2022-10-02T09:49:06.796Z,18.9
2022-10-02T09:51:07.907Z,19.1
2022-10-02T09:53:09.022Z,19.4
2022-10-02T09:55:10.139Z,19.1
2022-10-02T09:57:12.772Z,18.5
2022-10-02T09:59:17.029Z,18.1
2022-10-02T10:01:18.205Z,18.1
2022-10-02T10:03:19.266Z,17.8
2022-10-02T10:05:20.358Z,17.9
2022-10-02T10:07:21.451Z,18.3
2022-10-02T10:09:22.559Z,18.2
2022-10-02T10:11:23.674Z,18.5
2022-10-02T10:13:27.970Z,19.6
2022-10-02T10:15:29.078Z,20.4
2022-10-02T10:17:30.181Z,20.9
2022-10-02T10:19:31.259Z,21.4
2022-10-02T10:21:32.359Z,21.4
2022-10-02T10:23:33.472Z,20.6
2022-10-02T10:25:34.571Z,20.5
2022-10-02T10:27:38.863Z,19.9
2022-10-02T10:29:39.981Z,20.1
2022-10-02T10:31:41.399Z,20.1
2022-10-02T10:32:43.182Z,19.6
2022-10-02T10:34:44.262Z,19.6
2022-10-02T10:36:46.809Z,19.2
2022-10-02T10:44:52.897Z,19.2
2022-10-02T10:46:53.981Z,18.3
2022-10-02T10:50:56.194Z,17.3
2022-10-02T10:55:01.577Z,18
2022-10-02T10:57:02.670Z,17.9
2022-10-02T10:59:03.733Z,17.6
2022-10-02T11:01:04.915Z,17.9
2022-10-02T11:03:05.949Z,18.5
2022-10-02T11:05:07.092Z,18.8
2022-10-02T11:07:08.156Z,18.6
2022-10-02T11:09:12.449Z,18.4
2022-10-02T11:11:13.554Z,18.5
2022-10-02T11:13:14.647Z,18.1
2022-10-02T11:15:15.755Z,18
2022-10-02T11:17:16.842Z,18.1
2022-10-02T11:19:21.516Z,18
2022-10-02T11:21:19.052Z,18.1
2022-10-02T11:23:23.326Z,17.7
2022-10-02T11:25:24.438Z,17.7
2022-10-02T11:27:25.550Z,17.8
2022-10-02T11:28:27.729Z,17.7
2022-10-02T11:30:28.764Z,17.5
2022-10-02T11:32:29.862Z,17.7
2022-10-02T11:34:30.952Z,17.8
2022-10-02T11:36:35.260Z,17.6
2022-10-02T11:38:36.360Z,17.5
2022-10-02T11:40:37.456Z,17.7
2022-10-02T11:42:38.549Z,17.6
2022-10-02T11:44:39.645Z,17.5
2022-10-02T11:46:40.755Z,17.6
2022-10-02T11:50:46.146Z,17.7
2022-10-02T11:52:48.399Z,17.6
2022-10-02T11:54:48.365Z,17.6
2022-10-02T11:56:49.477Z,17.6
2022-10-02T12:04:57.078Z,17.3
2022-10-02T12:08:59.289Z,17.2
2022-10-02T12:13:01.515Z,17.7
2022-10-02T12:15:02.651Z,17.6
2022-10-02T12:17:03.749Z,17.4
2022-10-02T12:19:08.045Z,17.4
2022-10-02T12:21:09.157Z,17.4
2022-10-02T12:27:39.398Z,17.5
2022-10-02T12:31:44.830Z,17.7
2022-10-02T12:33:45.899Z,17.6
2022-10-02T12:37:48.122Z,17.7
2022-10-02T12:39:49.250Z,17.7
2022-10-02T12:43:51.461Z,17.8
2022-10-02T12:45:55.814Z,17.5
2022-10-02T12:47:56.860Z,17.3
2022-10-02T12:49:57.965Z,17.5
2022-10-02T12:51:59.082Z,17.6
2022-10-02T12:54:00.169Z,17.8
2022-10-02T13:00:07.136Z,17.6
2022-10-02T13:02:08.275Z,17.6
2022-10-02T13:18:20.220Z,16.9
2022-10-02T13:19:22.361Z,16.8
2022-10-02T13:21:23.481Z,16.9
2022-10-02T13:23:24.592Z,16.8
2022-10-02T13:25:25.700Z,16.8
2022-10-02T13:27:31.666Z,17.1
2022-10-02T13:29:31.346Z,17.1
2022-10-02T13:31:32.286Z,16.9
2022-10-02T13:33:33.341Z,16.9
2022-10-02T13:35:34.451Z,16.9
2022-10-02T13:37:35.585Z,17.1
2022-10-02T13:39:36.676Z,17.2
2022-10-02T13:45:43.236Z,16.9
2022-10-02T13:47:44.326Z,16.9
2022-10-02T13:49:45.437Z,17
2022-10-02T13:57:53.206Z,17.3
2022-10-02T13:59:54.300Z,17.3
2022-10-02T14:01:55.427Z,17.3
2022-10-02T14:03:56.631Z,17.3
2022-10-02T14:05:58.066Z,17.2
2022-10-02T14:07:58.782Z,17.3
2022-10-02T14:10:03.066Z,17.3
2022-10-02T14:12:04.178Z,17.2
2022-10-02T14:14:05.304Z,17.3
2022-10-02T14:15:07.447Z,17.4
2022-10-02T14:17:08.561Z,17.3
2022-10-02T14:19:09.651Z,17.2
2022-10-02T14:21:11.036Z,17.4
2022-10-02T14:23:15.056Z,17.5
2022-10-02T14:25:16.165Z,17.5
2022-10-02T14:27:17.284Z,17.6
2022-10-02T14:29:18.387Z,17.4
2022-10-02T14:31:19.588Z,17.3
2022-10-02T14:33:20.617Z,17.4
2022-10-02T14:35:21.723Z,17.3
2022-10-02T14:37:26.027Z,17.2
2022-10-02T14:39:27.116Z,17.1
2022-10-02T14:41:28.243Z,16.9
2022-10-02T14:43:29.361Z,16.9
2022-10-02T14:45:30.532Z,16.9
2022-10-02T14:47:31.585Z,16.9
2022-10-02T14:49:32.709Z,17
2022-10-02T14:51:37.364Z,17
2022-10-02T14:53:38.117Z,17.1
2022-10-02T14:55:39.238Z,17.1
2022-10-02T14:57:40.346Z,17.1
2022-10-02T14:59:41.460Z,17.1
2022-10-02T15:01:42.577Z,17.3
2022-10-02T15:05:48.005Z,17.2
2022-10-02T15:07:49.120Z,17.2
2022-10-02T15:09:50.207Z,17.1
2022-10-02T15:14:55.558Z,16.9
2022-10-02T15:16:56.680Z,16.7
2022-10-02T15:25:04.322Z,16.8
2022-10-02T15:29:06.649Z,16.6
2022-10-02T15:31:07.853Z,16.8
2022-10-02T15:33:11.997Z,16.9
2022-10-02T15:35:13.101Z,16.9
2022-10-02T15:37:14.251Z,16.8
2022-10-02T15:39:15.368Z,16.8
2022-10-02T15:41:16.500Z,16.8
2022-10-02T15:43:17.617Z,16.7
2022-10-02T15:45:18.746Z,16.6
2022-10-02T15:49:25.683Z,16.5
2022-10-02T15:51:26.803Z,16.4
2022-10-02T15:53:27.918Z,16.3
2022-10-02T15:55:29.042Z,16.4
2022-10-02T15:57:30.171Z,16.3
2022-10-02T15:59:31.325Z,16.2
2022-10-02T16:01:39.160Z,16.1
2022-10-02T16:03:36.745Z,16.1
2022-10-02T16:05:37.878Z,16.1
2022-10-02T16:08:05.968Z,16
2022-10-02T16:10:07.094Z,16
2022-10-02T16:12:08.414Z,15.9
2022-10-02T16:14:12.504Z,15.8
2022-10-02T16:16:13.719Z,15.8
2022-10-02T16:18:14.767Z,15.8
2022-10-02T16:20:15.909Z,15.8
2022-10-02T16:22:18.025Z,15.7
2022-10-02T16:24:18.199Z,15.7
2022-10-02T16:26:19.337Z,15.6
2022-10-02T16:32:25.946Z,15.5
2022-10-02T16:34:27.074Z,15.4
2022-10-02T16:36:28.218Z,15.4
2022-10-02T16:40:30.476Z,15.3
2022-10-02T16:42:34.774Z,15.2
2022-10-02T16:44:35.930Z,15.2
2022-10-02T16:46:37.415Z,15.2
2022-10-02T16:48:38.220Z,15.1
2022-10-02T16:50:42.280Z,15.1
2022-10-02T16:52:40.484Z,15.1
2022-10-02T16:54:41.639Z,14.9
2022-10-02T16:56:45.946Z,14.9
2022-10-02T16:58:47.077Z,14.8
2022-10-02T17:00:48.296Z,14.8
2022-10-02T17:02:15.911Z,14.7
2022-10-02T17:03:51.580Z,14.7
2022-10-02T17:05:52.688Z,14.6
2022-10-02T17:07:53.821Z,14.6
2022-10-02T17:09:58.277Z,14.5
2022-10-02T17:11:59.425Z,14.5
2022-10-02T17:14:00.577Z,14.4
2022-10-02T17:16:01.934Z,14.3
2022-10-02T17:18:02.940Z,14.3
2022-10-02T17:20:04.081Z,14.3
2022-10-02T17:22:05.236Z,14.2
2022-10-02T17:24:09.773Z,14.1
2022-10-02T17:26:11.044Z,14.1
2022-10-02T17:28:12.369Z,14.1
2022-10-02T17:30:13.428Z,14
2022-10-02T17:32:14.598Z,13.9
2022-10-02T17:34:15.843Z,13.8
2022-10-02T17:36:17.082Z,13.8
2022-10-02T17:42:23.926Z,13.6
2022-10-02T17:44:25.185Z,13.6
2022-10-02T17:46:26.461Z,13.7
2022-10-02T17:48:27.715Z,13.6
2022-10-02T17:50:28.986Z,13.5
2022-10-02T17:52:33.399Z,13.5
2022-10-02T17:54:34.672Z,13.5
2022-10-02T17:56:35.918Z,13.5
2022-10-02T17:57:38.179Z,13.4
2022-10-02T17:59:39.337Z,13.4
2022-10-02T18:01:40.698Z,13.4
2022-10-02T18:03:41.849Z,13.4
2022-10-02T18:05:46.386Z,13.3
2022-10-02T18:07:47.641Z,13.3
2022-10-02T18:09:48.899Z,13.3
2022-10-02T18:11:50.136Z,13.3
2022-10-02T18:13:53.095Z,13.2
2022-10-02T18:15:52.531Z,13.2
2022-10-02T18:17:53.785Z,13.2
2022-10-02T18:19:58.336Z,13.1
2022-10-02T18:21:59.600Z,13.1
2022-10-02T18:24:00.829Z,13.1
2022-10-02T18:26:02.096Z,13
2022-10-02T18:30:04.594Z,13
2022-10-02T18:32:05.926Z,13
2022-10-02T18:34:10.398Z,13
2022-10-02T18:36:11.666Z,13
2022-10-02T18:40:14.227Z,12.9
2022-10-02T18:42:15.379Z,12.8
2022-10-02T18:44:16.636Z,12.8
2022-10-02T18:46:17.971Z,12.8
2022-10-02T18:48:22.434Z,12.8
2022-10-02T18:50:23.707Z,12.8
2022-10-02T18:52:24.954Z,12.7
2022-10-02T18:53:27.201Z,12.7
2022-10-02T18:55:28.487Z,12.7
2022-10-02T18:57:29.738Z,12.7
2022-10-02T18:59:31.014Z,12.7
2022-10-02T19:01:35.741Z,12.6
2022-10-02T19:03:36.766Z,12.6
2022-10-02T19:05:38.067Z,12.6
2022-10-02T19:07:39.307Z,12.6
2022-10-02T19:09:40.572Z,12.6
2022-10-02T19:11:41.805Z,12.6
2022-10-02T19:13:43.066Z,12.5
2022-10-02T19:19:50.120Z,12.5
2022-10-02T19:23:52.684Z,12.4
2022-10-02T19:25:53.907Z,12.4
2022-10-02T19:29:59.699Z,12.2
2022-10-02T19:32:01.003Z,12.2
2022-10-02T19:34:02.202Z,12.2
2022-10-02T19:36:03.465Z,12.2
2022-10-02T19:40:08.964Z,12.2
2022-10-02T19:42:07.210Z,12.1
2022-10-02T19:44:11.760Z,12.1
2022-10-02T19:46:13.063Z,12.1
2022-10-02T19:48:14.272Z,12.1
2022-10-02T19:52:43.885Z,12
2022-10-02T19:54:45.128Z,12
2022-10-02T19:56:49.648Z,12
2022-10-02T20:00:52.200Z,11.9
2022-10-02T20:02:53.418Z,11.9
2022-10-02T20:04:54.656Z,11.9
2022-10-02T20:06:55.929Z,11.9
2022-10-02T20:08:57.163Z,11.9
2022-10-02T20:11:01.869Z,11.9
2022-10-02T20:15:04.196Z,11.8
2022-10-02T20:17:05.458Z,11.8
2022-10-02T20:19:06.709Z,11.8
2022-10-02T20:21:07.959Z,11.9
2022-10-02T20:23:09.223Z,11.8
2022-10-02T20:27:14.988Z,11.8
2022-10-02T20:29:16.226Z,11.9
2022-10-02T20:31:17.529Z,11.9
2022-10-02T20:33:18.759Z,11.8
2022-10-02T20:35:19.990Z,11.9
2022-10-02T20:37:21.254Z,11.9
2022-10-02T20:41:27.039Z,11.9
2022-10-02T20:43:28.294Z,11.9
2022-10-02T20:44:30.571Z,11.9
2022-10-02T20:46:31.812Z,11.8
2022-10-02T20:48:55.621Z,11.8
2022-10-02T20:52:38.883Z,11.7
2022-10-02T20:54:40.149Z,11.8
2022-10-02T20:56:41.397Z,11.7
2022-10-02T20:58:42.637Z,11.7
2022-10-02T21:00:44.117Z,11.7
2022-10-02T21:04:46.420Z,11.6
2022-10-02T21:06:50.944Z,11.5
2022-10-02T21:08:52.198Z,11.5
2022-10-02T21:10:53.431Z,11.4
2022-10-02T21:16:57.225Z,11.2
2022-10-02T21:18:58.468Z,11.2
2022-10-02T21:27:06.749Z,11.2
2022-10-02T21:29:07.998Z,11.2
2022-10-02T21:33:10.517Z,11.1
2022-10-02T21:35:16.569Z,11.1
2022-10-02T21:37:17.774Z,11.1
2022-10-02T21:39:19.027Z,11.1
2022-10-02T21:40:21.302Z,11.1
2022-10-02T21:42:22.542Z,11
2022-10-02T21:44:23.824Z,11
2022-10-02T21:46:25.124Z,11
2022-10-02T21:48:29.582Z,11
2022-10-02T21:50:30.851Z,10.9
2022-10-02T21:52:32.148Z,10.9
2022-10-02T21:54:33.388Z,10.9
2022-10-02T21:58:35.896Z,10.9
2022-10-02T22:00:37.164Z,10.9
2022-10-02T22:02:41.643Z,10.8
2022-10-02T22:04:42.907Z,10.8
2022-10-02T22:06:44.206Z,10.8
2022-10-02T22:10:46.709Z,10.8
2022-10-02T22:12:47.955Z,10.8
2022-10-02T22:14:49.269Z,10.7
2022-10-02T22:16:53.761Z,10.7
2022-10-02T22:18:54.997Z,10.6
2022-10-02T22:22:57.532Z,10.7
2022-10-02T22:24:58.775Z,10.6
2022-10-02T22:27:00.033Z,10.6
2022-10-02T22:29:01.266Z,10.6
2022-10-02T22:31:05.880Z,10.5
2022-10-02T22:33:07.049Z,10.5
2022-10-02T22:35:08.303Z,10.5
2022-10-02T22:38:11.821Z,10.4
2022-10-02T22:40:13.072Z,10.4
2022-10-02T22:42:14.325Z,10.4
2022-10-02T22:44:18.858Z,10.4
2022-10-02T22:46:20.141Z,10.4
2022-10-02T22:48:21.356Z,10.4
2022-10-02T22:50:22.604Z,10.4
2022-10-02T22:52:23.840Z,10.4
2022-10-02T22:54:25.120Z,10.4
2022-10-02T22:56:26.328Z,10.4
2022-10-02T22:58:30.848Z,10.3
2022-10-02T23:00:32.112Z,10.3
2022-10-02T23:02:33.483Z,10.3
2022-10-02T23:04:34.605Z,10.3
2022-10-02T23:06:35.847Z,10.2
2022-10-02T23:08:37.131Z,10.2
2022-10-02T23:10:38.377Z,10.2
2022-10-02T23:12:42.906Z,10.1
2022-10-02T23:14:44.175Z,10.1
2022-10-02T23:16:45.416Z,10.1
2022-10-02T23:18:46.672Z,10.1
2022-10-02T23:20:47.933Z,10.1
2022-10-02T23:22:49.209Z,10
2022-10-02T23:30:57.524Z,10
2022-10-02T23:33:25.865Z,10
2022-10-02T23:35:27.133Z,10
2022-10-02T23:37:28.386Z,10
2022-10-02T23:45:36.631Z,9.9
2022-10-02T23:47:37.931Z,9.9
2022-10-02T23:57:47.452Z,9.8
2022-10-02T23:59:48.698Z,9.8
